Time;durP1;ratioP1;P1;durP2;ratioP2;P2;SDS_P1;SDS_P2;PMS_P1;PMS_P2;Temp;Humidity;BMP_temperature;BMP_pressure;BME280_temperature;BME280_humidity;BME280_pressure;Samples;Min_cycle;Max_cycle;Signal;HPM_P1;HPM_P2
2022/10/04 00:03:21;;;;;;;2.13;0.95;;;18.00;58.00;;;16.83;58.01;101717.97;12266912;19;20014;-85
2022/10/04 00:07:29;;;;;;;2.17;0.93;;;17.90;58.00;;;16.82;57.88;101719.75;12260734;19;20066;-84
2022/10/04 00:11:36;;;;;;;2.08;0.95;;;17.70;57.80;;;16.61;57.98;101677.16;12264885;19;20460;-84
2022/10/04 00:15:38;;;;;;;3.85;1.05;;;17.70;57.90;;;16.75;57.88;101713.16;12262151;19;20010;-85
2022/10/04 00:19:50;;;;;;;2.50;1.10;;;17.70;57.90;;;16.83;57.94;101726.72;12261952;19;20002;-84
2022/10/04 00:24:10;;;;;;;5.03;1.30;;;17.70;57.90;;;16.70;58.01;101716.09;12256919;19;20086;-83
2022/10/04 00:28:28;;;;;;;3.35;1.08;;;17.70;58.00;;;16.71;58.03;101723.06;12256923;19;20014;-83
2022/10/04 00:32:39;;;;;;;4.32;1.05;;;17.80;58.10;;;16.80;58.04;101729.56;12257505;19;20357;-84
2022/10/04 00:36:50;;;;;;;2.45;0.90;;;17.80;58.10;;;16.66;58.05;101704.06;12262643;19;20007;-85
2022/10/04 00:41:03;;;;;;;5.93;1.23;;;17.90;58.10;;;16.54;58.18;101691.66;12266195;19;20007;-84
2022/10/04 00:45:34;;;;;;;2.63;0.90;;;17.80;58.00;;;16.62;58.12;101713.13;12265436;19;20062;-84
2022/10/04 00:49:41;;;;;;;2.60;0.80;;;17.60;58.00;;;16.43;57.96;101684.44;12266801;19;20018;-84
2022/10/04 00:54:10;;;;;;;1.00;0.80;;;17.80;58.00;;;16.72;58.08;101721.28;12278867;19;20010;-84
2022/10/04 00:58:23;;;;;;;6.78;1.13;;;17.60;58.00;;;16.68;58.24;101725.06;12275893;19;20516;-84
2022/10/04 01:02:36;;;;;;;4.82;0.98;;;17.80;58.00;;;16.67;58.07;101726.84;12275506;19;20022;-84
2022/10/04 01:06:39;;;;;;;3.45;0.90;;;17.60;58.00;;;16.65;58.09;101717.34;12273145;19;20029;-84
2022/10/04 01:10:50;;;;;;;4.90;0.98;;;17.80;58.00;;;16.38;58.39;101676.00;12275825;19;20035;-84
2022/10/04 01:15:10;;;;;;;1.65;0.95;;;17.60;58.00;;;16.59;58.24;101729.13;12274120;19;20014;-83
2022/10/04 01:19:21;;;;;;;3.95;1.25;;;17.50;57.90;;;16.62;58.08;101721.03;12271158;19;20479;-83
2022/10/04 01:23:42;;;;;;;4.50;1.50;;;17.40;57.90;;;16.60;58.21;101715.84;12274944;19;20018;-83
2022/10/04 01:27:44;;;;;;;1.88;0.93;;;17.40;57.80;;;16.28;58.29;101664.34;12269462;19;20019;-84
2022/10/04 01:31:49;;;;;;;2.20;0.95;;;17.70;57.90;;;16.52;57.94;101712.84;12273373;19;20010;-83
2022/10/04 01:35:51;;;;;;;5.35;1.48;;;17.40;57.80;;;16.48;58.13;101710.53;12272330;19;20510;-84
2022/10/04 01:39:53;;;;;;;3.00;0.88;;;17.60;57.90;;;16.54;58.27;101713.59;12275281;19;20011;-84
2022/10/04 01:44:01;;;;;;;5.65;1.02;;;17.40;57.80;;;16.47;58.13;101701.78;12273897;19;20015;-84
2022/10/04 01:48:14;;;;;;;2.90;1.08;;;17.40;57.70;;;16.30;58.30;101684.38;12267114;19;20018;-83
2022/10/04 01:52:35;;;;;;;3.97;1.20;;;17.30;57.70;;;16.50;58.20;101721.81;12275268;19;20070;-83
2022/10/04 01:56:43;;;;;;;1.88;0.90;;;17.30;57.70;;;16.19;58.30;101668.41;12273588;19;20010;-83
2022/10/04 02:01:02;;;;;;;4.20;0.95;;;17.30;57.70;;;16.36;58.06;101699.84;12273449;19;20014;-83
2022/10/04 02:05:09;;;;;;;3.30;0.90;;;17.50;57.80;;;16.23;58.18;101679.59;12272935;19;20015;-83
2022/10/04 02:09:22;;;;;;;3.25;1.10;;;17.30;57.70;;;16.39;57.89;101704.06;12270206;19;20014;-84
2022/10/04 02:13:28;;;;;;;5.63;1.08;;;17.30;57.70;;;16.36;58.25;101705.09;12274280;19;20035;-84
2022/10/04 02:17:37;;;;;;;3.28;0.70;;;17.20;57.60;;;16.35;58.21;101700.75;12271836;19;20015;-84
2022/10/04 02:21:39;;;;;;;2.20;0.80;;;17.20;57.70;;;16.37;58.17;101701.50;12274305;19;20010;-84
2022/10/04 02:25:40;;;;;;;1.73;0.88;;;17.30;57.70;;;16.31;58.34;101696.66;12274110;19;20376;-84
2022/10/04 02:29:43;;;;;;;3.00;0.75;;;17.20;57.60;;;16.31;58.22;101698.41;12273985;19;20100;-83
2022/10/04 02:33:48;;;;;;;4.18;0.90;;;17.20;57.60;;;16.29;58.11;101693.25;12271089;19;20035;-84
2022/10/04 02:38:06;;;;;;;1.27;1.00;;;17.20;57.60;;;16.27;58.21;101703.03;12266250;19;20433;-84
2022/10/04 02:42:24;;;;;;;2.60;0.73;;;17.10;57.50;;;16.22;58.37;101691.94;12272526;19;20029;-84
2022/10/04 02:46:56;;;;;;;1.50;0.77;;;17.10;57.50;;;16.25;58.37;101701.44;12265972;19;20027;-83
2022/10/04 02:51:27;;;;;;;2.67;0.75;;;17.10;57.50;;;16.20;58.10;101700.88;12271592;19;20011;-84
2022/10/04 02:55:30;;;;;;;1.30;0.77;;;17.00;57.50;;;15.94;58.05;101661.22;12266135;19;20018;-83
2022/10/04 02:59:33;;;;;;;2.08;0.80;;;17.00;57.50;;;16.02;58.29;101679.19;12268585;19;20018;-84
2022/10/04 03:03:37;;;;;;;1.13;0.55;;;17.00;57.50;;;16.00;58.32;101686.34;12264299;19;20037;-84
2022/10/04 03:07:39;;;;;;;2.13;0.85;;;17.10;57.60;;;15.95;58.26;101683.97;12266942;19;20007;-84
2022/10/04 03:11:42;;;;;;;3.03;1.00;;;17.00;57.50;;;15.80;58.11;101670.00;12265863;19;20015;-84
2022/10/04 03:15:45;;;;;;;5.18;0.98;;;16.90;57.50;;;15.96;58.07;101698.00;12266773;19;20367;-84
2022/10/04 03:19:50;;;;;;;2.53;0.93;;;16.80;57.40;;;15.70;58.16;101668.88;12268186;19;20078;-84
2022/10/04 03:23:53;;;;;;;1.95;0.77;;;16.80;57.50;;;15.91;58.11;101698.31;12267099;19;20354;-84
2022/10/04 03:28:00;;;;;;;1.90;0.90;;;16.80;57.60;;;15.87;58.22;101702.06;12268461;19;20011;-84
2022/10/04 03:32:04;;;;;;;1.65;0.80;;;16.70;57.50;;;15.85;58.29;101704.78;12268559;19;20078;-84
2022/10/04 03:36:15;;;;;;;3.63;1.13;;;16.70;57.50;;;15.81;58.30;101703.28;12267171;19;20018;-84
2022/10/04 03:40:31;;;;;;;3.25;0.77;;;16.70;57.50;;;15.72;58.29;101693.31;12273379;19;20051;-84
2022/10/04 03:44:33;;;;;;;3.78;0.80;;;16.70;57.50;;;15.82;58.23;101715.50;12270454;19;20022;-84
2022/10/04 03:48:56;;;;;;;2.03;1.33;;;16.60;57.50;;;15.64;58.41;101692.91;12268790;19;20021;-84
2022/10/04 03:53:06;;;;;;;1.20;0.80;;;16.60;57.50;;;15.69;58.35;101704.06;12269432;19;20334;-84
2022/10/04 03:57:08;;;;;;;3.67;0.80;;;16.70;57.60;;;15.65;58.24;101707.75;12266842;19;20070;-84
2022/10/04 04:01:42;;;;;;;3.35;0.73;;;16.70;57.60;;;15.48;58.48;101683.31;12269951;19;20014;-84
2022/10/04 04:05:52;;;;;;;2.53;0.90;;;16.50;57.60;;;15.55;58.43;101696.09;12274277;19;20010;-84
2022/10/04 04:10:19;;;;;;;3.35;1.15;;;16.50;57.70;;;15.46;58.36;101702.75;12270018;19;20026;-84
2022/10/04 04:14:27;;;;;;;1.95;0.80;;;16.40;57.70;;;15.35;58.36;101692.88;12268360;19;20022;-84
2022/10/04 04:18:36;;;;;;;2.13;0.82;;;16.40;57.90;;;15.54;58.30;101724.22;12264453;19;20019;-84
2022/10/04 04:22:40;;;;;;;3.58;1.63;;;16.50;58.00;;;15.51;58.35;101726.19;12265205;19;20651;-84
2022/10/04 04:26:52;;;;;;;3.72;1.00;;;16.30;58.00;;;15.39;58.60;101712.81;12267534;19;20017;-84
2022/10/04 04:31:11;;;;;;;4.70;1.35;;;16.30;58.10;;;15.44;58.16;101723.91;12272700;19;20006;-84
2022/10/04 04:35:28;;;;;;;2.90;1.08;;;16.30;58.20;;;15.48;58.57;101738.59;12273451;19;20014;-84
2022/10/04 04:39:36;;;;;;;4.60;1.17;;;16.60;58.30;;;15.47;58.38;101726.38;12270359;19;20010;-84
2022/10/04 04:43:42;;;;;;;4.72;1.20;;;16.30;58.60;;;15.43;58.41;101724.00;12273713;19;20018;-84
2022/10/04 04:47:56;;;;;;;3.38;0.98;;;16.30;58.30;;;15.36;58.63;101720.88;12266390;19;20002;-84
2022/10/04 04:51:58;;;;;;;4.00;0.98;;;16.40;58.30;;;15.15;58.41;101674.78;12273633;19;20023;-84
2022/10/04 04:56:05;;;;;;;2.10;0.82;;;16.20;58.20;;;15.45;58.79;101737.94;12271992;19;20384;-84
2022/10/04 05:00:15;;;;;;;2.20;0.80;;;16.30;58.20;;;15.37;58.62;101730.50;12271016;19;20014;-84
2022/10/04 05:04:22;;;;;;;2.45;1.00;;;16.30;58.10;;;15.41;58.75;101731.97;12271566;19;20022;-84
2022/10/04 05:08:27;;;;;;;2.70;1.10;;;16.20;58.10;;;15.36;58.60;101728.78;12265975;19;20019;-83
2022/10/04 05:12:29;;;;;;;4.03;1.20;;;16.20;58.10;;;15.37;58.64;101729.66;12270688;19;20078;-84
2022/10/04 05:16:49;;;;;;;3.90;1.15;;;16.20;58.00;;;15.15;58.57;101711.63;12267734;19;20779;-83
2022/10/04 05:20:53;;;;;;;1.45;0.60;;;16.20;58.00;;;15.30;58.52;101739.66;12262221;19;20046;-83
2022/10/04 05:25:01;;;;;;;3.13;1.20;;;16.20;58.00;;;15.23;58.75;101728.66;12266519;19;20006;-86
2022/10/04 05:29:20;;;;;;;5.07;1.02;;;16.20;58.00;;;15.21;58.53;101737.59;12257361;19;20018;-83
2022/10/04 05:33:43;;;;;;;2.78;0.82;;;16.10;58.00;;;15.17;58.55;101736.91;12262416;19;20018;-84
2022/10/04 05:38:05;;;;;;;4.00;0.93;;;16.10;58.00;;;15.15;58.58;101735.28;12253874;19;20002;-82
2022/10/04 05:42:23;;;;;;;4.10;1.30;;;16.10;58.00;;;15.19;58.84;101753.44;12258837;19;20078;-85
2022/10/04 05:46:32;;;;;;;1.85;0.70;;;16.00;58.00;;;15.08;58.71;101737.44;12260293;19;20006;-83
2022/10/04 05:50:40;;;;;;;1.80;1.20;;;16.00;58.00;;;15.11;58.56;101749.59;12261743;19;20026;-84
2022/10/04 05:54:42;;;;;;;2.42;1.05;;;16.00;58.00;;;15.12;58.79;101746.00;12259396;19;20010;-83
2022/10/04 05:59:41;;;;;;;1.55;0.95;;;15.90;58.00;;;15.06;58.70;101752.47;12257657;19;20472;-84
2022/10/04 06:04:20;;;;;;;6.25;1.05;;;16.00;58.20;;;15.00;58.74;101756.31;12256652;19;20501;-84
2022/10/04 06:08:49;;;;;;;3.75;1.08;;;15.90;58.20;;;14.97;58.85;101753.84;12255289;19;20026;-83
2022/10/04 06:13:19;;;;;;;2.63;0.98;;;15.90;58.30;;;15.00;58.94;101760.72;12270926;19;20018;-86
2022/10/04 06:17:47;;;;;;;2.80;0.80;;;15.80;58.40;;;15.00;58.83;101766.81;12266244;19;20014;-85
2022/10/04 06:21:48;;;;;;;2.00;0.90;;;15.80;58.50;;;15.06;58.93;101768.25;12265415;19;20006;-84
2022/10/04 06:26:19;;;;;;;1.95;0.85;;;15.90;58.50;;;15.01;58.94;101762.41;12263524;19;20049;-84
2022/10/04 06:30:30;;;;;;;2.10;1.25;;;15.90;58.70;;;15.01;59.06;101746.63;12261846;19;20014;-85
2022/10/04 06:35:26;;;;;;;2.00;0.85;;;15.90;58.70;;;15.17;59.04;101776.38;12261856;19;20014;-85
2022/10/04 06:39:59;;;;;;;5.05;2.28;;;16.00;58.80;;;15.27;59.04;101776.69;12258129;19;20480;-89
2022/10/04 06:44:45;;;;;;;2.58;0.77;;;16.10;58.80;;;15.05;59.23;101735.00;12262872;19;20036;-87
2022/10/04 06:49:39;;;;;;;2.78;1.15;;;16.20;58.80;;;15.18;59.26;101728.09;12254699;19;20090;-84
2022/10/04 06:54:22;;;;;;;2.70;1.00;;;16.30;58.90;;;15.42;59.22;101757.38;12261448;19;20026;-87
2022/10/04 06:58:37;;;;;;;3.75;1.40;;;16.40;58.80;;;15.63;59.25;101772.81;12255721;19;20463;-83
2022/10/04 07:03:01;;;;;;;9.07;3.57;;;16.50;58.80;;;15.63;59.28;101771.03;12252502;19;20487;-84
2022/10/04 07:07:26;;;;;;;2.05;0.95;;;16.60;58.70;;;15.81;59.48;101782.28;12248049;19;20112;-83
2022/10/04 07:11:52;;;;;;;3.45;0.93;;;16.70;58.60;;;15.83;59.25;101772.53;12253452;19;20015;-84
2022/10/04 07:16:00;;;;;;;;;;;16.90;58.60;;;15.96;59.37;101795.47;12248531;19;20492;-83
2022/10/04 07:20:05;;;;;;;8.52;1.60;;;16.90;58.40;;;16.05;59.34;101797.56;12256986;19;19941;-85
2022/10/04 07:24:17;;;;;;;4.78;1.27;;;17.00;58.40;;;16.08;59.22;101794.75;12254934;19;20056;-86
2022/10/04 07:32:51;;;;;;;3.63;1.42;;;17.20;58.20;;;15.92;59.31;101761.41;12255651;19;20030;-85
2022/10/04 07:37:02;;;;;;;3.95;1.40;;;17.20;58.00;;;16.05;59.27;101787.88;12252547;19;20025;-86
2022/10/04 07:41:32;;;;;;;1.55;1.20;;;17.30;57.90;;;16.32;59.07;101827.50;12253118;19;20398;-87
2022/10/04 07:45:39;;;;;;;2.78;1.58;;;17.30;57.90;;;16.27;59.11;101815.53;12251793;19;20015;-86
2022/10/04 07:49:41;;;;;;;3.20;1.10;;;17.40;57.70;;;16.04;59.07;101782.69;12256301;19;20046;-86
2022/10/04 07:54:22;;;;;;;5.07;1.20;;;17.50;57.80;;;16.23;59.13;101809.63;12254851;19;20014;-88
2022/10/04 07:58:55;;;;;;;2.22;1.15;;;17.40;57.70;;;16.37;59.23;101838.59;12248917;19;20364;-86
2022/10/04 08:03:36;;;;;;;2.15;1.30;;;17.40;57.80;;;16.40;58.96;101842.84;12263740;19;20017;-86
2022/10/04 08:08:18;;;;;;;2.63;1.30;;;17.40;57.80;;;16.44;59.26;101848.75;12260856;19;20044;-85
2022/10/04 08:12:47;;;;;;;2.53;1.00;;;17.40;57.70;;;16.49;58.92;101855.44;12264482;19;20468;-85
2022/10/04 08:17:32;;;;;;;2.75;1.80;;;17.40;57.90;;;16.52;59.01;101864.94;12264892;19;20094;-85
2022/10/04 08:21:51;;;;;;;4.40;1.60;;;17.50;57.80;;;16.40;59.05;101844.63;12277696;19;20470;-86
2022/10/04 08:26:06;;;;;;;2.22;1.10;;;17.50;57.70;;;16.57;59.00;101871.63;12274298;19;20034;-88
2022/10/04 08:30:16;;;;;;;3.65;1.30;;;17.50;57.60;;;16.47;59.02;101859.09;12270919;19;20026;-86
2022/10/04 08:34:54;;;;;;;3.20;1.25;;;17.60;57.70;;;16.56;59.10;101869.09;12270333;19;20011;-85
2022/10/04 08:38:59;;;;;;;4.63;1.88;;;17.60;57.90;;;16.50;59.21;101864.19;12274248;19;20024;-86
2022/10/04 08:43:36;;;;;;;2.85;1.42;;;17.80;57.80;;;16.60;59.27;101875.88;12271749;19;20022;-86
2022/10/04 08:48:12;;;;;;;2.58;1.52;;;17.50;57.90;;;16.64;58.98;101876.53;12263409;19;20022;-84
2022/10/04 08:52:38;;;;;;;3.28;1.80;;;17.60;57.80;;;16.67;58.90;101877.19;12264319;19;20743;-86
2022/10/04 08:57:14;;;;;;;3.65;1.88;;;17.60;57.70;;;16.70;59.01;101878.78;12264958;19;20017;-85
2022/10/04 09:02:12;;;;;;;3.33;1.58;;;17.60;57.80;;;16.74;59.08;101867.97;12263574;19;20381;-85
2022/10/04 09:06:48;;;;;;;2.40;1.25;;;17.70;58.20;;;16.50;59.01;101829.91;12261771;19;20483;-86
2022/10/04 09:11:29;;;;;;;2.47;1.30;;;17.80;57.60;;;16.89;59.17;101873.25;12260752;19;20026;-86
2022/10/04 09:15:55;;;;;;;5.60;2.03;;;17.80;57.60;;;16.95;59.07;101878.97;12265607;19;20019;-88
2022/10/04 09:20:33;;;;;;;2.28;1.50;;;17.90;57.50;;;16.92;58.89;101851.94;12267909;19;20022;-86
2022/10/04 09:25:38;;;;;;;2.13;1.70;;;18.00;57.40;;;17.07;58.84;101872.06;12263335;19;20026;-86
2022/10/04 09:30:00;;;;;;;2.42;1.58;;;18.00;57.40;;;17.21;58.84;101876.47;12262672;19;20022;-85
2022/10/04 09:34:40;;;;;;;2.90;1.63;;;18.10;57.40;;;17.32;58.86;101878.41;12261702;19;20014;-85
2022/10/04 09:39:11;;;;;;;3.78;1.75;;;18.30;57.80;;;17.45;59.05;101872.22;12258817;19;20455;-85
2022/10/04 09:43:57;;;;;;;3.28;1.92;;;18.30;57.20;;;17.51;59.00;101872.75;12258061;19;20022;-84
2022/10/04 09:48:08;;;;;;;;;;;18.50;56.90;;;17.44;59.04;101846.75;12257184;19;20010;-85
2022/10/04 09:52:17;;;;;;;1.60;1.30;;;18.80;57.40;;;17.64;58.76;101857.78;12257816;19;19930;-85
2022/10/04 09:56:31;;;;;;;1.85;1.50;;;18.70;57.00;;;17.79;58.83;101856.75;12253142;19;20019;-85
2022/10/04 10:01:32;;;;;;;2.63;1.83;;;18.80;56.80;;;17.96;59.19;101874.16;12257937;19;20022;-84
2022/10/04 10:06:12;;;;;;;3.55;1.75;;;18.90;57.20;;;18.03;58.73;101840.19;12254566;19;20018;-85
2022/10/04 10:15:23;;;;;;;2.65;1.63;;;19.20;56.40;;;18.27;58.68;101845.59;12254984;19;20017;-85
2022/10/04 10:20:01;;;;;;;9.93;2.13;;;19.40;56.00;;;18.37;58.32;101851.09;12256460;19;20022;-84
2022/10/04 10:24:53;;;;;;;1.90;1.40;;;19.40;56.00;;;18.40;58.25;101850.88;12255261;19;20011;-85
2022/10/04 10:29:18;;;;;;;2.60;1.40;;;19.50;56.10;;;18.37;58.53;101822.00;12277144;19;20006;-86
2022/10/04 10:34:20;;;;;;;1.75;1.27;;;19.50;55.80;;;18.51;58.43;101843.84;12266798;19;20010;-85
2022/10/04 10:39:02;;;;;;;3.35;1.35;;;19.60;55.80;;;18.57;58.15;101845.22;12263919;19;20022;-85
2022/10/04 10:43:41;;;;;;;3.35;1.20;;;19.60;55.40;;;18.42;58.23;101804.00;12265512;19;20011;-84
2022/10/04 10:47:52;;;;;;;1.98;1.15;;;19.70;55.40;;;18.72;57.88;101849.44;12257360;19;20013;-84
2022/10/04 10:52:44;;;;;;;1.65;1.13;;;19.70;55.60;;;18.53;57.87;101810.22;12261513;19;20020;-84
2022/10/04 10:57:32;;;;;;;1.90;1.00;;;19.80;55.40;;;18.78;58.14;101846.34;12253737;19;20011;-84
2022/10/04 11:02:09;;;;;;;1.25;0.85;;;19.80;55.30;;;18.88;57.84;101846.56;12257412;19;20018;-87
2022/10/04 11:06:38;;;;;;;1.70;0.90;;;20.10;55.30;;;18.97;58.07;101842.38;12253249;19;20029;-84
2022/10/04 11:11:15;;;;;;;3.03;1.08;;;20.00;55.20;;;18.95;57.65;101833.72;12252765;19;20018;-84
2022/10/04 11:16:10;;;;;;;2.15;0.70;;;20.20;55.30;;;18.90;57.77;101825.25;12254131;19;20496;-85
2022/10/04 11:20:51;;;;;;;1.20;1.10;;;20.10;55.30;;;19.02;57.65;101829.66;12247461;19;20082;-82
2022/10/04 11:25:06;;;;;;;1.27;1.10;;;20.30;55.30;;;19.22;57.76;101854.66;12247838;19;20003;-82
2022/10/04 11:29:23;;;;;;;;;;;20.20;55.30;;;19.26;57.75;101850.00;12239551;19;20014;-81
2022/10/04 11:34:18;;;;;;;1.95;1.00;;;20.30;55.80;;;19.29;57.76;101847.97;12244740;19;20257;-81
2022/10/04 11:38:51;;;;;;;3.65;1.17;;;20.40;55.10;;;19.33;57.54;101844.13;12249186;19;20015;-81
2022/10/04 11:43:38;;;;;;;2.60;1.17;;;20.40;54.20;;;19.29;57.19;101842.66;12243145;19;20431;-82
2022/10/04 11:47:53;;;;;;;1.52;1.10;;;20.40;54.70;;;19.23;57.26;101833.38;12244153;19;20018;-82
2022/10/04 11:52:16;;;;;;;2.25;1.20;;;20.30;54.70;;;19.35;57.25;101838.72;12242211;19;20078;-84
2022/10/04 11:56:36;;;;;;;1.52;0.85;;;20.30;54.70;;;19.35;57.26;101839.56;12246950;19;20014;-83
2022/10/04 12:01:30;;;;;;;1.83;1.10;;;20.30;54.50;;;19.38;57.38;101823.44;12253188;19;20017;-81
2022/10/04 12:05:50;;;;;;;1.38;1.20;;;20.30;54.80;;;19.44;56.95;101812.41;12249473;19;20011;-84
2022/10/04 12:10:15;;;;;;;3.13;1.00;;;20.40;54.70;;;19.46;57.11;101815.75;12248670;19;20086;-83
2022/10/04 12:14:52;;;;;;;1.65;0.90;;;20.40;54.40;;;19.49;56.94;101812.03;12247446;19;20007;-84
2022/10/04 12:19:38;;;;;;;3.88;1.17;;;20.50;54.50;;;19.52;56.86;101814.44;12245662;19;20019;-82
2022/10/04 12:24:20;;;;;;;1.90;0.93;;;20.50;54.50;;;19.44;56.92;101806.22;12247050;19;20787;-83
2022/10/04 12:28:51;;;;;;;3.03;1.00;;;20.50;54.70;;;19.46;56.72;101799.84;12242318;19;20074;-83
2022/10/04 12:33:18;;;;;;;1.52;0.82;;;20.60;54.50;;;19.42;57.04;101779.88;12259704;19;20014;-82
2022/10/04 12:38:09;;;;;;;1.95;0.90;;;20.70;54.30;;;19.56;56.93;101807.13;12250199;19;20468;-84
2022/10/04 12:42:41;;;;;;;3.80;0.80;;;20.60;54.40;;;19.63;56.89;101822.44;12251745;19;20370;-82
2022/10/04 12:47:02;;;;;;;1.73;1.05;;;20.60;54.20;;;19.61;56.54;101823.53;12252907;19;20086;-83
2022/10/04 12:52:05;;;;;;;2.17;1.17;;;20.60;54.30;;;19.63;56.60;101819.78;12259606;19;20007;-84
2022/10/04 12:56:57;;;;;;;3.38;1.58;;;20.60;54.50;;;19.30;56.51;101772.00;12257123;19;20021;-83
2022/10/04 13:01:35;;;;;;;2.47;1.13;;;20.60;54.40;;;19.57;56.62;101816.75;12254881;19;20400;-83
2022/10/04 13:05:45;;;;;;;1.70;0.82;;;20.60;54.10;;;19.64;56.27;101818.81;12255390;19;20767;-84
2022/10/04 13:10:07;;;;;;;1.92;0.90;;;20.60;54.10;;;19.63;56.36;101808.31;12259489;19;20021;-83
2022/10/04 13:14:40;;;;;;;1.05;0.80;;;20.50;54.40;;;19.63;56.47;101824.22;12258989;19;20244;-83
2022/10/04 13:18:48;;;;;;;4.38;1.17;;;20.50;54.00;;;19.56;56.20;101807.13;12256466;19;20025;-82
2022/10/04 13:24:02;;;;;;;2.63;0.85;;;20.50;54.20;;;19.62;56.14;101807.47;12256215;19;20090;-82
2022/10/04 13:28:53;;;;;;;2.05;1.10;;;20.50;54.30;;;19.65;56.50;101798.47;12249767;19;20010;-83
2022/10/04 13:33:12;;;;;;;3.40;1.08;;;20.70;54.50;;;19.63;56.19;101779.16;12252854;19;20074;-83
2022/10/04 13:37:31;;;;;;;3.00;1.05;;;20.50;54.30;;;19.74;56.33;101779.25;12249815;19;20018;-83
2022/10/04 13:42:07;;;;;;;3.22;1.75;;;20.60;54.40;;;19.81;55.89;101774.31;12253913;19;20018;-82
2022/10/04 13:46:46;;;;;;;1.20;1.05;;;20.70;53.80;;;19.74;56.30;101763.34;12249363;19;20018;-83
2022/10/04 13:51:31;;;;;;;1.67;0.90;;;20.70;54.30;;;19.89;55.90;101778.03;12253353;19;20036;-83
2022/10/04 14:01:01;;;;;;;2.22;1.05;;;20.80;54.10;;;19.96;55.89;101749.25;12253242;19;20010;-82
2022/10/04 14:05:37;;;;;;;1.42;0.70;;;20.90;54.00;;;19.98;55.90;101749.13;12251113;19;20017;-82
2022/10/04 14:10:10;;;;;;;2.72;0.90;;;21.00;53.70;;;20.05;55.92;101752.97;12253007;19;20078;-83
2022/10/04 14:14:59;;;;;;;0.65;0.52;;;21.00;53.80;;;20.07;55.90;101749.25;12255010;19;20341;-83
2022/10/04 14:19:19;;;;;;;1.70;0.60;;;21.00;53.30;;;20.10;55.73;101741.03;12250743;19;20017;-82
2022/10/04 14:24:17;;;;;;;1.58;0.60;;;21.20;53.50;;;20.12;55.70;101738.28;12256678;19;20019;-83
2022/10/04 14:29:06;;;;;;;1.15;0.52;;;21.10;53.40;;;19.99;55.63;101708.41;12250409;19;20007;-83
2022/10/04 14:33:27;;;;;;;1.92;0.70;;;21.10;53.30;;;20.11;55.33;101720.66;12250588;19;20003;-82
2022/10/04 14:38:27;;;;;;;1.08;0.68;;;21.10;53.50;;;20.04;55.47;101704.41;12251118;19;20015;-83
2022/10/04 14:43:25;;;;;;;0.57;0.45;;;21.10;53.50;;;20.20;55.42;101719.94;12260492;19;20025;-83
2022/10/04 14:47:57;;;;;;;1.55;0.52;;;21.10;53.20;;;20.20;55.05;101714.66;12255738;19;20078;-83
2022/10/04 14:52:13;;;;;;;4.85;0.85;;;21.10;53.00;;;20.22;55.40;101718.00;12252694;19;20115;-83
2022/10/04 14:57:11;;;;;;;1.48;0.90;;;21.20;53.20;;;20.27;55.41;101731.72;12250110;19;20010;-82
2022/10/04 15:01:20;;;;;;;2.03;1.00;;;21.20;53.10;;;20.30;55.29;101726.19;12252970;19;20483;-83
2022/10/04 15:05:53;;;;;;;1.35;0.65;;;21.20;53.10;;;20.20;54.95;101693.44;12250579;19;20015;-83
2022/10/04 15:10:09;;;;;;;2.40;1.00;;;21.20;52.50;;;20.23;55.16;101703.78;12246426;19;20018;-83
2022/10/04 15:14:37;;;;;;;2.35;0.93;;;21.20;52.90;;;20.15;54.92;101689.47;12248820;19;20502;-81
2022/10/04 15:19:03;;;;;;;2.63;1.42;;;21.20;52.90;;;20.29;54.79;101718.34;12254254;19;20015;-83
2022/10/04 15:23:36;;;;;;;1.70;0.90;;;21.20;52.70;;;20.27;54.59;101707.84;12251871;19;20032;-83
2022/10/04 15:27:52;;;;;;;1.38;0.70;;;21.20;53.10;;;19.95;54.99;101646.78;12243733;19;20007;-83
2022/10/04 15:32:17;;;;;;;;;;;21.20;53.00;;;20.14;54.89;101677.97;12244602;19;20018;-83
2022/10/04 15:37:02;;;;;;;2.35;0.80;;;21.20;53.70;;;20.24;55.05;101688.69;12244050;19;20329;-82
2022/10/04 15:41:18;;;;;;;2.20;2.00;;;21.10;53.10;;;20.20;54.74;101684.59;12246396;19;20027;-82
2022/10/04 15:46:03;;;;;;;3.05;2.08;;;21.20;52.90;;;20.18;54.69;101694.50;12245185;19;20411;-81
2022/10/04 15:50:51;;;;;;;1.95;1.45;;;21.00;53.30;;;20.14;54.58;101699.19;12247064;19;20035;-82
2022/10/04 15:55:32;;;;;;;2.05;1.00;;;21.00;53.10;;;20.10;54.95;101705.72;12245462;19;20082;-82
2022/10/04 15:59:57;;;;;;;1.40;0.80;;;20.90;53.60;;;20.08;54.82;101708.50;12246667;19;20013;-83
2022/10/04 16:04:45;;;;;;;1.67;0.93;;;21.10;53.90;;;20.04;54.88;101707.06;12248766;19;20015;-85
2022/10/04 16:09:12;;;;;;;1.38;1.05;;;20.90;53.90;;;20.03;55.00;101709.81;12244715;19;20022;-84
2022/10/04 16:14:00;;;;;;;1.88;0.80;;;21.00;54.00;;;19.95;54.61;101710.44;12250430;19;20007;-85
2022/10/04 16:18:50;;;;;;;0.65;0.43;;;20.80;53.90;;;19.87;54.69;101712.84;12246973;19;20018;-84
2022/10/04 16:23:31;;;;;;;1.00;0.60;;;20.70;54.10;;;19.73;54.48;101705.13;12261257;19;20052;-85
2022/10/04 16:27:54;;;;;;;2.75;0.60;;;20.60;54.10;;;19.55;54.60;101697.66;12256683;19;20488;-84
2022/10/04 16:32:13;;;;;;;2.05;0.90;;;20.40;54.00;;;19.31;54.55;101668.59;12260156;19;20013;-87
2022/10/04 16:36:25;;;;;;;1.95;0.50;;;20.50;54.50;;;19.41;54.67;101706.63;12256735;19;20010;-85
2022/10/04 16:40:50;;;;;;;1.17;0.60;;;20.20;54.10;;;19.29;54.49;101696.16;12261045;19;20077;-85
2022/10/04 16:45:00;;;;;;;2.05;0.80;;;20.10;54.10;;;19.18;54.92;101676.63;12265869;19;20014;-86
2022/10/04 16:49:32;;;;;;;1.17;0.70;;;19.90;54.30;;;18.94;54.58;101673.19;12269648;19;20018;-86
2022/10/04 16:53:50;;;;;;;3.05;1.00;;;19.80;54.40;;;18.93;54.73;101685.59;12262407;19;20543;-86
2022/10/04 16:58:25;;;;;;;0.82;0.60;;;19.60;54.50;;;18.82;54.66;101695.28;12256157;19;20017;-86
2022/10/04 17:03:04;;;;;;;0.95;0.50;;;19.50;54.60;;;18.68;54.77;101696.28;12265467;19;20104;-85
2022/10/04 17:07:41;;;;;;;2.08;0.50;;;19.40;54.70;;;18.67;54.83;101711.31;12258601;19;20007;-87
2022/10/04 17:12:12;;;;;;;1.05;0.80;;;19.30;54.80;;;18.63;54.83;101722.22;12264113;19;20058;-86
2022/10/04 17:16:35;;;;;;;0.50;0.50;;;19.20;54.90;;;18.59;54.77;101724.25;12260785;19;20014;-86
2022/10/04 17:20:40;;;;;;;1.77;0.90;;;19.20;54.80;;;18.56;55.04;101721.84;12257774;19;20136;-85
2022/10/04 17:25:15;;;;;;;6.18;0.70;;;19.20;54.80;;;18.50;54.85;101722.31;12256397;19;20090;-86
2022/10/04 17:29:42;;;;;;;2.72;1.55;;;19.10;54.80;;;18.45;55.03;101729.72;12254707;19;20013;-86
2022/10/04 17:34:23;;;;;;;14.77;11.02;;;19.10;54.80;;;18.08;55.07;101692.69;12254347;19;20041;-85
2022/10/04 17:38:57;;;;;;;27.25;20.45;;;19.00;54.70;;;18.26;55.04;101730.19;12258277;19;20476;-86
2022/10/04 17:43:25;;;;;;;14.63;11.70;;;19.00;54.70;;;18.06;54.85;101716.56;12254196;19;20014;-86
2022/10/04 17:56:37;;;;;;;1.45;1.35;;;18.60;54.50;;;17.54;54.98;101672.66;12256287;19;20025;-86
2022/10/04 18:01:05;;;;;;;1.83;0.80;;;18.50;54.60;;;17.69;55.09;101716.50;12254145;19;20011;-86
2022/10/04 18:05:28;;;;;;;0.80;0.73;;;18.40;54.70;;;17.61;55.06;101707.44;12254084;19;20019;-86
2022/10/04 18:09:43;;;;;;;1.13;0.80;;;18.20;54.70;;;17.51;55.06;101690.53;12253518;19;20007;-86
2022/10/04 18:14:12;;;;;;;1.67;1.30;;;18.10;54.80;;;17.42;55.12;101707.84;12251582;19;20078;-87
2022/10/04 18:18:23;;;;;;;1.38;1.20;;;18.00;54.80;;;17.37;55.23;101707.31;12251496;19;20007;-87
2022/10/04 18:22:26;;;;;;;1.70;1.20;;;18.00;55.00;;;17.33;55.09;101700.53;12252454;19;20009;-87
2022/10/04 18:26:31;;;;;;;3.45;1.50;;;18.10;55.10;;;17.29;55.01;101685.88;12253180;19;20011;-87
2022/10/04 18:30:33;;;;;;;;;;;17.90;55.00;;;16.95;55.04;101665.22;12255740;19;20014;-87
2022/10/04 18:34:36;;;;;;;1.27;1.08;;;18.00;55.10;;;17.08;55.22;101701.34;12254505;19;19922;-88